Castine, Maine
Current Conditions -  °F | °C
As of 1:15 PM on Friday 21 Nov 2014 (Local Time) from KBHB Reporting Station
Broken Clouds Broken Clouds  
Wind Chill: 24°   Ceiling: 4900
Heat Index: 32°   Visibility: 10mi
Dew Point: 12°   Wind: 10mph
Humidity: 44%   Direction: 290°WNW
Pressure: 29.95"   Gusts: 21mph
Location:  44.39°N, 68.8°W
Report Text: KBHB 211815Z AUTO 29009G18KT 10SM BKN049 00/M11 A2995 RMK AO1
Loading
Personal Weather Stations






























Interactive Weather Map New forecast layout! Learn more

10-Day Weather Forecast

Advertisements
Track Severe Weather on mobile